Flight Track Log - Related Links

Times and Time Zones

All times are in EDT time to prevent confusion due to time zone crossing. See the EJA904 flight status page for this flight to view local times or setup timezone preferences in your user account.


Time Position Orientation Groundspeed Altitude Reporting Facility
EDT Latitude Longitude Course Direction KTS MPH feet Rate Location/Type
Fri 09:27:12 AM 30.1044 -97.5700 90° East 265 305 5,000  Level Houston Center
Fri 09:28:14 AM 30.1403 -97.4931 62° Northeast 271 312 7,500 1,835 Climbing Houston Center
Fri 09:30:00 AM 30.1548 -97.2633 86° East  Level Estimated
Fri 09:31:00 AM 30.2372 -96.8885 95° East  Level Estimated
Fri 09:32:00 AM 30.2438 -96.7582 90° East  Level Estimated
Fri 09:36:28 AM 30.3256 -96.5858 87° East 415 478 22,000  Level Houston Center
Fri 09:37:00 AM 30.2082 -96.3523 86° East  Level Estimated
Fri 09:38:00 AM 30.2153 -96.2221 86° East  Level Estimated
Fri 09:38:00 AM 30.3000 -96.3867 90° East  Level FlightAware Approximate
Fri 09:39:00 AM 30.2223 -96.0918 86° East  Level Estimated
Fri 09:39:33 AM 30.3422 -96.1669 90° East 437 503 25,900  Level Houston Center
Fri 09:40:00 AM 30.2291 -95.9616 86° East  Level Estimated
Fri 09:41:00 AM 30.2359 -95.8313 87° East  Level Estimated
Fri 09:41:00 AM 30.3489 -95.9777 120° Southeast  Level Estimated
Fri 09:48:00 AM 30.3776 -95.0635 84° East  Level Estimated
Fri 09:49:00 AM 30.2681 -95.0319 166° South  Level FlightAware Approximate
Fri 09:50:00 AM 30.2741 -94.9015 84° East  Level Estimated
Fri 09:51:00 AM 30.2647 -94.7714 95° East  Level FlightAware Approximate
Fri 09:52:00 AM 30.2553 -94.6413 95° East  Level FlightAware Approximate
Fri 09:53:00 AM 30.2457 -94.5112 95° East  Level FlightAware Approximate
Fri 09:54:00 AM 30.2360 -94.3812 95° East  Level FlightAware Approximate
Fri 09:55:00 AM 30.2262 -94.2512 95° East  Level FlightAware Approximate
Fri 09:56:00 AM 30.2162 -94.1212 95° East  Level FlightAware Approximate
Fri 09:57:00 AM 30.2061 -93.9912 95° East  Level FlightAware Approximate
Fri 09:58:00 AM 30.1959 -93.8613 95° East  Level FlightAware Approximate
Fri 09:59:00 AM 30.1855 -93.7314 95° East  Level FlightAware Approximate
Fri 10:00:00 AM 30.1750 -93.6015 95° East  Level FlightAware Approximate
Fri 10:01:00 AM 30.1644 -93.4717 95° East  Level FlightAware Approximate
Fri 10:02:00 AM 30.1537 -93.3419 95° East  Level FlightAware Approximate
Fri 10:03:00 AM 30.1428 -93.2121 95° East  Level FlightAware Approximate
Fri 10:04:00 AM 30.1343 -93.0950 78° East  Level FlightAware Approximate
Fri 10:05:00 AM 30.1580 -92.9675 78° East  Level FlightAware Approximate
Fri 10:06:00 AM 30.1816 -92.8400 78° East  Level FlightAware Approximate
Fri 10:07:00 AM 30.2051 -92.7124 78° East  Level FlightAware Approximate
Fri 10:08:00 AM 30.2285 -92.5847 78° East  Level FlightAware Approximate
Fri 10:09:00 AM 30.2520 -92.4570 77° East  Level FlightAware Approximate
Fri 10:10:00 AM 30.2777 -92.3299 77° East  Level FlightAware Approximate
Fri 10:11:00 AM 30.3033 -92.2028 77° East  Level FlightAware Approximate
Fri 10:12:00 AM 30.3288 -92.0755 77° East  Level FlightAware Approximate
Fri 10:13:00 AM 30.3542 -91.9482 77° East  Level FlightAware Approximate
Fri 10:14:00 AM 30.3794 -91.8208 77° East  Level FlightAware Approximate
Fri 10:15:00 AM 30.4046 -91.6934 77° East  Level FlightAware Approximate
Fri 10:16:00 AM 30.4301 -91.5661 77° East  Level FlightAware Approximate
Fri 10:17:00 AM 30.4521 -91.4378 79° East  Level FlightAware Approximate
Fri 10:18:00 AM 30.4766 -91.3102 74° East  Level FlightAware Approximate
Fri 10:19:00 AM 30.4706 -91.1815 98° East  Level FlightAware Approximate
Fri 10:20:00 AM 30.4667 -91.0511 90° East  Level FlightAware Approximate
Fri 10:21:00 AM 30.4667 -90.9202 90° East  Level FlightAware Approximate
Fri 10:22:00 AM 30.4667 -90.7894 90° East  Level FlightAware Approximate
Fri 10:23:00 AM 30.4517 -90.6603 101° East  Level FlightAware Approximate
Fri 10:24:00 AM 30.4500 -90.5296 90° East  Level FlightAware Approximate
Fri 10:25:00 AM 30.4501 -90.3988 90° East  Level FlightAware Approximate
Fri 10:26:00 AM 30.4500 -90.2681 90° East  Level FlightAware Approximate
Fri 10:27:00 AM 30.4432 -90.1376 95° East  Level FlightAware Approximate
Fri 10:28:00 AM 30.4339 -90.0072 95° East  Level FlightAware Approximate
Fri 10:29:00 AM 30.4334 -89.8765 90° East  Level FlightAware Approximate
Fri 10:30:00 AM 30.4317 -89.7458 95° East  Level FlightAware Approximate
Fri 10:31:00 AM 30.4217 -89.6155 95° East  Level FlightAware Approximate
Fri 10:32:00 AM 30.4167 -89.4850 90° East  Level FlightAware Approximate
Fri 10:33:00 AM 30.4167 -89.3543 90° East  Level FlightAware Approximate
Fri 10:34:00 AM 30.4000 -89.2287 90° East  Level FlightAware Approximate
Fri 10:35:00 AM 30.4000 -89.0980 90° East  Level FlightAware Approximate
Fri 10:36:00 AM 30.4000 -89.0667 90° East  Level FlightAware Approximate
Fri 10:37:00 AM 30.4073 -89.0701 90° East  Level Estimated
Fri 10:38:00 AM 30.4073 -89.0701 90° East  Level Estimated
Fri 10:39:00 AM 30.4073 -89.0701 90° East  Level Estimated
Fri 10:40:00 AM 30.4073 -89.0701 90° East  Level Estimated
Fri 10:41:00 AM 30.4073 -89.0701 90° East  Level Estimated
Fri 10:42:00 AM 30.4073 -89.0701 90° East  Level Estimated
Fri 10:43:00 AM 30.4073 -89.0701 90° East  Level Estimated
Fri 10:44:00 AM 30.4073 -89.0701 90° East  Level Estimated
Fri 10:45:00 AM 30.4073 -89.0701 90° East  Level Estimated
Fri 10:46:00 AM 30.4073 -89.0701 90° East  Level Estimated
Fri 10:47:00 AM 30.4073 -89.0701 90° East  Level Estimated
Fri 10:48:00 AM 30.4073 -89.0701 90° East  Level Estimated
Fri 10:49:00 AM 30.4073 -89.0701 90° East  Level Estimated

Login

Don't have an account? Register now (free) for customized features, flight alerts, and more!